Terminal Aerodrome Forecast
Issued by NWS

Home | Current Version | Previous Version | Text Only | Print | Product List | Glossary Off
Versions: 1 2 3 4 5 6 7 8 9 10 11 12 13 14 15

621
FTUS43 KMPX 042335
TAFRNH
TAF
KRNH 042335Z 0500/0524 22006KT P6SM SCT010 BKN015 OVC035
     FM050200 22006KT 4SM BR SCT010 OVC025
     FM050700 VRB03KT 1/2SM FZFG VV002
     FM051400 14009KT P6SM OVC090
     FM052100 15011KT P6SM -RA OVC015=

USA.gov is the U.S. government's official web portal to all federal, state and local government web resources and services.